Siesta Key, Florida
Current Conditions -  °F | °C
As of 7:53 AM on Tuesday 21 Oct 2014 (Local Time) from KSRQ Reporting Station
Clear Clear  
Wind Chill: 69°   Ceiling: Unl
Heat Index: 69°   Visibility: 10mi
Dew Point: 67°   Wind: 3mph
Humidity: 93%   Direction: 100°E
Pressure: 29.93"   Gusts: NA
Location:  27.2613°N, 82.5431°W
Report Text: KSRQ 211153Z 10003KT 10SM CLR 21/19 A2993 RMK AO2 SLP134 T02060194 10228 20206 53006
Loading
Personal Weather Stations






























Interactive Weather Map New forecast layout! Learn more

10-Day Weather Forecast

Advertisements
Track Severe Weather on mobile